sensor_id;sensor_type;location;lat;lon;timestamp;temperature;humidity
24232;DHT22;12364;47.810;8.810;2022-08-01T03:47:31;22.30;70.70
24232;DHT22;12364;47.810;8.810;2022-08-01T03:49:58;22.20;71.20
24232;DHT22;12364;47.810;8.810;2022-08-01T03:52:27;22.10;71.20
24232;DHT22;12364;47.810;8.810;2022-08-01T03:54:56;22.00;71.40
24232;DHT22;12364;47.810;8.810;2022-08-01T03:57:24;22.10;71.30
24232;DHT22;12364;47.810;8.810;2022-08-01T04:00:03;22.10;71.50
24232;DHT22;12364;47.810;8.810;2022-08-01T04:02:33;22.10;71.70
24232;DHT22;12364;47.810;8.810;2022-08-01T04:05:01;22.10;72.00
24232;DHT22;12364;47.810;8.810;2022-08-01T04:07:29;22.00;71.80
24232;DHT22;12364;47.810;8.810;2022-08-01T04:09:57;22.00;72.00
24232;DHT22;12364;47.810;8.810;2022-08-01T04:12:24;22.00;71.90
24232;DHT22;12364;47.810;8.810;2022-08-01T04:14:51;22.00;72.00
24232;DHT22;12364;47.810;8.810;2022-08-01T04:17:18;22.00;72.20
24232;DHT22;12364;47.810;8.810;2022-08-01T04:19:45;21.90;72.00
24232;DHT22;12364;47.810;8.810;2022-08-01T04:22:13;21.90;72.90
24232;DHT22;12364;47.810;8.810;2022-08-01T04:24:44;21.90;72.50
24232;DHT22;12364;47.810;8.810;2022-08-01T04:27:26;21.90;72.50
24232;DHT22;12364;47.810;8.810;2022-08-01T04:30:17;21.80;73.10
24232;DHT22;12364;47.810;8.810;2022-08-01T04:32:47;21.80;72.80
24232;DHT22;12364;47.810;8.810;2022-08-01T04:35:15;21.90;73.00
24232;DHT22;12364;47.810;8.810;2022-08-01T04:38:05;21.90;72.70
24232;DHT22;12364;47.810;8.810;2022-08-01T04:40:33;21.90;72.80
24232;DHT22;12364;47.810;8.810;2022-08-01T04:43:02;21.90;72.70
24232;DHT22;12364;47.810;8.810;2022-08-01T04:45:29;22.00;72.80
24232;DHT22;12364;47.810;8.810;2022-08-01T04:47:57;21.90;72.90
24232;DHT22;12364;47.810;8.810;2022-08-01T04:50:24;21.80;73.00
24232;DHT22;12364;47.810;8.810;2022-08-01T04:52:51;21.60;73.20
24232;DHT22;12364;47.810;8.810;2022-08-01T04:55:19;21.60;73.80
24232;DHT22;12364;47.810;8.810;2022-08-01T04:57:46;21.60;73.80
24232;DHT22;12364;47.810;8.810;2022-08-01T05:00:13;21.60;74.00
24232;DHT22;12364;47.810;8.810;2022-08-01T05:02:40;21.50;74.10
24232;DHT22;12364;47.810;8.810;2022-08-01T05:05:07;21.40;74.30
24232;DHT22;12364;47.810;8.810;2022-08-01T05:07:35;21.40;74.50
24232;DHT22;12364;47.810;8.810;2022-08-01T05:10:11;21.40;74.70
24232;DHT22;12364;47.810;8.810;2022-08-01T05:12:38;21.50;74.80
24232;DHT22;12364;47.810;8.810;2022-08-01T05:15:05;21.40;75.20
24232;DHT22;12364;47.810;8.810;2022-08-01T05:17:40;21.40;75.50
24232;DHT22;12364;47.810;8.810;2022-08-01T05:20:09;21.40;75.70
24232;DHT22;12364;47.810;8.810;2022-08-01T05:22:37;21.40;75.60
24232;DHT22;12364;47.810;8.810;2022-08-01T05:25:04;21.40;75.60
24232;DHT22;12364;47.810;8.810;2022-08-01T05:27:32;21.40;76.10
24232;DHT22;12364;47.810;8.810;2022-08-01T05:29:59;21.50;76.10
24232;DHT22;12364;47.810;8.810;2022-08-01T05:32:26;21.50;76.20
24232;DHT22;12364;47.810;8.810;2022-08-01T05:34:56;21.50;76.40
24232;DHT22;12364;47.810;8.810;2022-08-01T05:37:23;22.00;76.80
24232;DHT22;12364;47.810;8.810;2022-08-01T05:39:50;21.70;76.10
24232;DHT22;12364;47.810;8.810;2022-08-01T05:42:17;21.80;76.20
24232;DHT22;12364;47.810;8.810;2022-08-01T05:44:44;21.80;76.20
24232;DHT22;12364;47.810;8.810;2022-08-01T05:47:11;21.80;76.40
24232;DHT22;12364;47.810;8.810;2022-08-01T05:49:38;21.80;76.20
24232;DHT22;12364;47.810;8.810;2022-08-01T05:52:05;21.90;76.60
24232;DHT22;12364;47.810;8.810;2022-08-01T05:54:32;22.10;76.10
24232;DHT22;12364;47.810;8.810;2022-08-01T05:57:00;22.20;76.60
24232;DHT22;12364;47.810;8.810;2022-08-01T05:59:28;22.20;75.70
24232;DHT22;12364;47.810;8.810;2022-08-01T06:01:56;22.30;75.70
24232;DHT22;12364;47.810;8.810;2022-08-01T06:04:23;22.40;76.00
24232;DHT22;12364;47.810;8.810;2022-08-01T06:06:50;22.50;76.00
24232;DHT22;12364;47.810;8.810;2022-08-01T06:09:17;22.50;75.20
24232;DHT22;12364;47.810;8.810;2022-08-01T06:11:44;22.70;75.40
24232;DHT22;12364;47.810;8.810;2022-08-01T06:14:11;22.80;75.10
24232;DHT22;12364;47.810;8.810;2022-08-01T06:16:38;22.80;74.90
24232;DHT22;12364;47.810;8.810;2022-08-01T06:19:05;22.90;75.10
24232;DHT22;12364;47.810;8.810;2022-08-01T06:21:32;23.10;75.20
24232;DHT22;12364;47.810;8.810;2022-08-01T06:23:59;23.10;75.10
24232;DHT22;12364;47.810;8.810;2022-08-01T06:26:26;23.20;75.00
24232;DHT22;12364;47.810;8.810;2022-08-01T06:28:53;23.20;75.20
24232;DHT22;12364;47.810;8.810;2022-08-01T06:31:20;23.30;75.00
24232;DHT22;12364;47.810;8.810;2022-08-01T06:33:47;23.40;75.00
24232;DHT22;12364;47.810;8.810;2022-08-01T06:36:14;23.40;75.20
24232;DHT22;12364;47.810;8.810;2022-08-01T06:38:41;23.50;75.30
24232;DHT22;12364;47.810;8.810;2022-08-01T06:41:08;23.50;75.50
24232;DHT22;12364;47.810;8.810;2022-08-01T06:43:35;23.60;75.60
24232;DHT22;12364;47.810;8.810;2022-08-01T06:46:02;23.70;75.30
24232;DHT22;12364;47.810;8.810;2022-08-01T06:48:29;23.80;75.30
24232;DHT22;12364;47.810;8.810;2022-08-01T06:50:56;23.90;75.10
24232;DHT22;12364;47.810;8.810;2022-08-01T06:53:35;23.90;75.10
24232;DHT22;12364;47.810;8.810;2022-08-01T06:56:03;23.90;75.00
24232;DHT22;12364;47.810;8.810;2022-08-01T06:58:30;24.00;75.30
24232;DHT22;12364;47.810;8.810;2022-08-01T07:00:57;24.00;75.20
24232;DHT22;12364;47.810;8.810;2022-08-01T07:03:25;24.10;74.70
24232;DHT22;12364;47.810;8.810;2022-08-01T07:06:12;24.20;74.50
24232;DHT22;12364;47.810;8.810;2022-08-01T07:08:40;24.20;74.70
24232;DHT22;12364;47.810;8.810;2022-08-01T07:11:07;24.30;74.70
24232;DHT22;12364;47.810;8.810;2022-08-01T07:13:34;24.40;74.50
24232;DHT22;12364;47.810;8.810;2022-08-01T07:16:12;24.50;74.50
24232;DHT22;12364;47.810;8.810;2022-08-01T07:18:39;24.50;74.40
24232;DHT22;12364;47.810;8.810;2022-08-01T07:21:06;24.60;74.50
24232;DHT22;12364;47.810;8.810;2022-08-01T07:23:53;24.70;74.20
24232;DHT22;12364;47.810;8.810;2022-08-01T07:26:21;24.70;73.60
24232;DHT22;12364;47.810;8.810;2022-08-01T07:28:49;24.80;74.10
24232;DHT22;12364;47.810;8.810;2022-08-01T07:31:16;24.80;74.00
24232;DHT22;12364;47.810;8.810;2022-08-01T07:33:43;24.90;73.50
24232;DHT22;12364;47.810;8.810;2022-08-01T07:36:15;24.90;73.80
24232;DHT22;12364;47.810;8.810;2022-08-01T07:38:42;25.00;73.50
24232;DHT22;12364;47.810;8.810;2022-08-01T07:41:09;25.00;73.30
24232;DHT22;12364;47.810;8.810;2022-08-01T07:43:37;25.00;73.30
24232;DHT22;12364;47.810;8.810;2022-08-01T07:46:04;25.00;73.00
24232;DHT22;12364;47.810;8.810;2022-08-01T07:48:31;25.10;73.30
24232;DHT22;12364;47.810;8.810;2022-08-01T07:50:58;25.10;73.30
24232;DHT22;12364;47.810;8.810;2022-08-01T07:53:25;25.20;73.10
24232;DHT22;12364;47.810;8.810;2022-08-01T07:55:53;25.30;72.80
24232;DHT22;12364;47.810;8.810;2022-08-01T07:58:20;25.30;72.70
24232;DHT22;12364;47.810;8.810;2022-08-01T08:00:47;25.30;72.80
24232;DHT22;12364;47.810;8.810;2022-08-01T08:03:14;25.40;72.90
24232;DHT22;12364;47.810;8.810;2022-08-01T08:05:41;25.50;72.70
24232;DHT22;12364;47.810;8.810;2022-08-01T08:08:26;25.50;72.50
24232;DHT22;12364;47.810;8.810;2022-08-01T08:10:53;25.60;71.50
24232;DHT22;12364;47.810;8.810;2022-08-01T08:13:20;25.70;71.90
24232;DHT22;12364;47.810;8.810;2022-08-01T08:15:47;25.70;72.00
24232;DHT22;12364;47.810;8.810;2022-08-01T08:18:15;25.70;71.90
24232;DHT22;12364;47.810;8.810;2022-08-01T08:20:42;25.80;71.90
24232;DHT22;12364;47.810;8.810;2022-08-01T08:23:09;25.90;70.70
24232;DHT22;12364;47.810;8.810;2022-08-01T08:26:10;26.00;70.50
24232;DHT22;12364;47.810;8.810;2022-08-01T08:28:37;26.00;70.70
24232;DHT22;12364;47.810;8.810;2022-08-01T08:31:06;26.00;70.10
24232;DHT22;12364;47.810;8.810;2022-08-01T08:33:51;26.10;69.80
24232;DHT22;12364;47.810;8.810;2022-08-01T08:36:18;26.10;70.00
24232;DHT22;12364;47.810;8.810;2022-08-01T08:38:45;26.20;69.80
24232;DHT22;12364;47.810;8.810;2022-08-01T08:41:12;26.30;69.40
24232;DHT22;12364;47.810;8.810;2022-08-01T08:43:46;26.40;69.60
24232;DHT22;12364;47.810;8.810;2022-08-01T08:46:14;26.40;69.10
24232;DHT22;12364;47.810;8.810;2022-08-01T08:48:41;26.50;68.70
24232;DHT22;12364;47.810;8.810;2022-08-01T08:51:08;26.50;68.50
24232;DHT22;12364;47.810;8.810;2022-08-01T08:53:40;26.50;68.30
24232;DHT22;12364;47.810;8.810;2022-08-01T08:56:11;26.50;68.30
24232;DHT22;12364;47.810;8.810;2022-08-01T08:58:40;26.50;68.30
24232;DHT22;12364;47.810;8.810;2022-08-01T09:01:07;26.60;67.60
24232;DHT22;12364;47.810;8.810;2022-08-01T09:03:35;26.60;67.40
24232;DHT22;12364;47.810;8.810;2022-08-01T09:06:02;26.70;67.10
24232;DHT22;12364;47.810;8.810;2022-08-01T09:08:29;26.70;66.60
24232;DHT22;12364;47.810;8.810;2022-08-01T09:10:56;26.80;66.00
24232;DHT22;12364;47.810;8.810;2022-08-01T09:13:23;26.90;64.30
24232;DHT22;12364;47.810;8.810;2022-08-01T09:15:51;26.90;64.60
24232;DHT22;12364;47.810;8.810;2022-08-01T09:18:29;26.90;64.70
24232;DHT22;12364;47.810;8.810;2022-08-01T09:23:36;27.00;65.40
24232;DHT22;12364;47.810;8.810;2022-08-01T09:26:30;27.00;64.80
24232;DHT22;12364;47.810;8.810;2022-08-01T09:28:58;27.10;64.30
24232;DHT22;12364;47.810;8.810;2022-08-01T09:31:26;27.20;64.40
24232;DHT22;12364;47.810;8.810;2022-08-01T09:34:04;27.20;64.20
24232;DHT22;12364;47.810;8.810;2022-08-01T09:39:12;27.30;63.60
24232;DHT22;12364;47.810;8.810;2022-08-01T09:41:39;27.40;63.50
24232;DHT22;12364;47.810;8.810;2022-08-01T09:44:06;27.40;63.50
24232;DHT22;12364;47.810;8.810;2022-08-01T09:46:34;27.40;63.50
24232;DHT22;12364;47.810;8.810;2022-08-01T09:49:04;27.40;63.30
24232;DHT22;12364;47.810;8.810;2022-08-01T09:51:37;27.50;63.20
24232;DHT22;12364;47.810;8.810;2022-08-01T09:54:28;27.60;62.40
24232;DHT22;12364;47.810;8.810;2022-08-01T09:57:07;27.60;61.00
24232;DHT22;12364;47.810;8.810;2022-08-01T09:59:35;27.60;62.30
24232;DHT22;12364;47.810;8.810;2022-08-01T10:04:55;27.70;61.70
24232;DHT22;12364;47.810;8.810;2022-08-01T10:07:33;27.80;61.30
24232;DHT22;12364;47.810;8.810;2022-08-01T10:10:14;27.90;61.70
24232;DHT22;12364;47.810;8.810;2022-08-01T10:12:41;28.00;61.50
24232;DHT22;12364;47.810;8.810;2022-08-01T10:15:13;28.00;61.20
24232;DHT22;12364;47.810;8.810;2022-08-01T10:17:41;28.10;60.80
24232;DHT22;12364;47.810;8.810;2022-08-01T10:20:20;28.10;60.50
24232;DHT22;12364;47.810;8.810;2022-08-01T10:22:59;28.10;60.30
24232;DHT22;12364;47.810;8.810;2022-08-01T10:25:28;28.10;59.80
24232;DHT22;12364;47.810;8.810;2022-08-01T10:28:11;28.20;59.60
24232;DHT22;12364;47.810;8.810;2022-08-01T10:30:43;28.20;59.10
24232;DHT22;12364;47.810;8.810;2022-08-01T10:33:11;28.20;59.00
24232;DHT22;12364;47.810;8.810;2022-08-01T10:35:59;28.20;59.60
24232;DHT22;12364;47.810;8.810;2022-08-01T10:38:27;28.40;59.80
24232;DHT22;12364;47.810;8.810;2022-08-01T10:40:54;28.40;58.90
24232;DHT22;12364;47.810;8.810;2022-08-01T10:43:23;28.40;58.70
24232;DHT22;12364;47.810;8.810;2022-08-01T10:45:50;28.50;58.00
24232;DHT22;12364;47.810;8.810;2022-08-01T10:50:48;28.50;57.90
24232;DHT22;12364;47.810;8.810;2022-08-01T10:53:22;28.60;58.00
24232;DHT22;12364;47.810;8.810;2022-08-01T10:58:32;28.60;57.40
24232;DHT22;12364;47.810;8.810;2022-08-01T11:01:14;28.60;57.70
24232;DHT22;12364;47.810;8.810;2022-08-01T11:03:42;28.70;57.20
24232;DHT22;12364;47.810;8.810;2022-08-01T11:06:25;28.70;57.00
24232;DHT22;12364;47.810;8.810;2022-08-01T11:08:53;28.80;57.30
24232;DHT22;12364;47.810;8.810;2022-08-01T11:11:22;28.90;57.60
24232;DHT22;12364;47.810;8.810;2022-08-01T11:14:04;28.90;57.40
24232;DHT22;12364;47.810;8.810;2022-08-01T11:16:36;29.00;56.90
24232;DHT22;12364;47.810;8.810;2022-08-01T11:19:04;29.00;56.50
24232;DHT22;12364;47.810;8.810;2022-08-01T11:27:17;29.20;56.20
24232;DHT22;12364;47.810;8.810;2022-08-01T11:32:38;29.20;55.30
24232;DHT22;12364;47.810;8.810;2022-08-01T11:35:31;29.30;55.20
24232;DHT22;12364;47.810;8.810;2022-08-01T11:38:22;29.40;54.60
24232;DHT22;12364;47.810;8.810;2022-08-01T11:41:11;29.40;55.10
24232;DHT22;12364;47.810;8.810;2022-08-01T11:52:09;29.70;53.50
24232;DHT22;12364;47.810;8.810;2022-08-01T11:55:11;29.80;53.40
24232;DHT22;12364;47.810;8.810;2022-08-01T11:57:31;29.80;52.50
24232;DHT22;12364;47.810;8.810;2022-08-01T12:02:34;29.90;51.80
24232;DHT22;12364;47.810;8.810;2022-08-01T12:05:04;30.20;51.60
24232;DHT22;12364;47.810;8.810;2022-08-01T12:07:35;30.00;50.70
24232;DHT22;12364;47.810;8.810;2022-08-01T12:12:32;30.10;49.30
24232;DHT22;12364;47.810;8.810;2022-08-01T12:15:01;30.10;49.80
24232;DHT22;12364;47.810;8.810;2022-08-01T12:17:32;30.20;49.00
24232;DHT22;12364;47.810;8.810;2022-08-01T12:20:00;30.20;47.80
24232;DHT22;12364;47.810;8.810;2022-08-01T12:22:27;30.30;47.90
24232;DHT22;12364;47.810;8.810;2022-08-01T12:24:54;30.40;47.60
24232;DHT22;12364;47.810;8.810;2022-08-01T12:27:28;30.40;48.90
24232;DHT22;12364;47.810;8.810;2022-08-01T12:29:58;30.50;47.80
24232;DHT22;12364;47.810;8.810;2022-08-01T12:32:28;30.50;48.10
24232;DHT22;12364;47.810;8.810;2022-08-01T12:35:05;30.60;47.50
24232;DHT22;12364;47.810;8.810;2022-08-01T12:40:14;30.60;47.50
24232;DHT22;12364;47.810;8.810;2022-08-01T12:42:42;30.60;46.90
24232;DHT22;12364;47.810;8.810;2022-08-01T12:45:09;30.60;47.40
24232;DHT22;12364;47.810;8.810;2022-08-01T12:47:37;30.50;47.80
24232;DHT22;12364;47.810;8.810;2022-08-01T12:50:05;30.60;47.20
24232;DHT22;12364;47.810;8.810;2022-08-01T12:52:33;30.60;48.10
24232;DHT22;12364;47.810;8.810;2022-08-01T12:55:00;30.80;47.10
24232;DHT22;12364;47.810;8.810;2022-08-01T12:57:28;30.80;46.70
24232;DHT22;12364;47.810;8.810;2022-08-01T13:02:38;30.80;46.70
24232;DHT22;12364;47.810;8.810;2022-08-01T13:05:06;30.80;46.30
24232;DHT22;12364;47.810;8.810;2022-08-01T13:07:44;30.80;47.00
24232;DHT22;12364;47.810;8.810;2022-08-01T13:10:13;30.70;46.90
24232;DHT22;12364;47.810;8.810;2022-08-01T13:12:40;30.50;46.70
24232;DHT22;12364;47.810;8.810;2022-08-01T13:15:17;30.60;47.70
24232;DHT22;12364;47.810;8.810;2022-08-01T13:17:44;30.60;47.40
24232;DHT22;12364;47.810;8.810;2022-08-01T13:20:21;30.70;46.80
24232;DHT22;12364;47.810;8.810;2022-08-01T13:22:48;30.70;46.60
24232;DHT22;12364;47.810;8.810;2022-08-01T13:25:15;30.70;46.70
24232;DHT22;12364;47.810;8.810;2022-08-01T13:27:48;30.70;46.80
24232;DHT22;12364;47.810;8.810;2022-08-01T13:30:19;30.70;46.90
24232;DHT22;12364;47.810;8.810;2022-08-01T13:32:57;30.70;47.00
24232;DHT22;12364;47.810;8.810;2022-08-01T13:35:24;30.80;48.20
24232;DHT22;12364;47.810;8.810;2022-08-01T13:37:51;30.80;49.80
24232;DHT22;12364;47.810;8.810;2022-08-01T13:40:25;30.60;50.20
24232;DHT22;12364;47.810;8.810;2022-08-01T13:42:55;30.60;50.00
24232;DHT22;12364;47.810;8.810;2022-08-01T13:45:23;30.50;50.00
24232;DHT22;12364;47.810;8.810;2022-08-01T13:47:52;30.60;50.60
24232;DHT22;12364;47.810;8.810;2022-08-01T13:50:38;30.60;49.30
24232;DHT22;12364;47.810;8.810;2022-08-01T13:53:07;30.70;49.00
24232;DHT22;12364;47.810;8.810;2022-08-01T13:55:35;30.80;49.60
24232;DHT22;12364;47.810;8.810;2022-08-01T13:58:02;30.80;50.00
24232;DHT22;12364;47.810;8.810;2022-08-01T14:00:30;30.80;49.40
24232;DHT22;12364;47.810;8.810;2022-08-01T14:02:57;30.90;49.80
24232;DHT22;12364;47.810;8.810;2022-08-01T14:05:24;30.90;49.60
24232;DHT22;12364;47.810;8.810;2022-08-01T14:07:51;31.00;48.50
24232;DHT22;12364;47.810;8.810;2022-08-01T14:10:23;31.10;49.60
24232;DHT22;12364;47.810;8.810;2022-08-01T14:12:50;31.10;46.80
24232;DHT22;12364;47.810;8.810;2022-08-01T14:15:17;31.10;45.70
24232;DHT22;12364;47.810;8.810;2022-08-01T14:18:04;31.00;44.90
24232;DHT22;12364;47.810;8.810;2022-08-01T14:20:32;31.10;46.00
24232;DHT22;12364;47.810;8.810;2022-08-01T14:22:59;31.20;45.40
24232;DHT22;12364;47.810;8.810;2022-08-01T14:25:27;31.10;45.60
24232;DHT22;12364;47.810;8.810;2022-08-01T14:28:14;31.10;46.20
24232;DHT22;12364;47.810;8.810;2022-08-01T14:30:41;31.20;46.60
24232;DHT22;12364;47.810;8.810;2022-08-01T14:33:09;31.20;46.60
24232;DHT22;12364;47.810;8.810;2022-08-01T14:35:36;31.10;46.80
24232;DHT22;12364;47.810;8.810;2022-08-01T14:38:23;31.00;46.90
24232;DHT22;12364;47.810;8.810;2022-08-01T14:40:57;31.00;47.00
24232;DHT22;12364;47.810;8.810;2022-08-01T14:43:25;31.00;47.30
24232;DHT22;12364;47.810;8.810;2022-08-01T14:45:59;31.00;47.30
24232;DHT22;12364;47.810;8.810;2022-08-01T14:48:26;31.10;47.10
24232;DHT22;12364;47.810;8.810;2022-08-01T14:50:56;31.10;47.60
24232;DHT22;12364;47.810;8.810;2022-08-01T14:53:23;31.20;47.20
24232;DHT22;12364;47.810;8.810;2022-08-01T14:55:50;31.20;46.40
24232;DHT22;12364;47.810;8.810;2022-08-01T14:58:17;31.10;46.40
24232;DHT22;12364;47.810;8.810;2022-08-01T15:00:44;31.20;46.20
24232;DHT22;12364;47.810;8.810;2022-08-01T15:03:12;31.10;45.50
24232;DHT22;12364;47.810;8.810;2022-08-01T15:05:39;31.20;46.20
24232;DHT22;12364;47.810;8.810;2022-08-01T15:08:06;31.20;45.70
24232;DHT22;12364;47.810;8.810;2022-08-01T15:10:33;31.20;45.90
24232;DHT22;12364;47.810;8.810;2022-08-01T15:13:00;31.30;45.90
24232;DHT22;12364;47.810;8.810;2022-08-01T15:15:28;31.30;45.90
24232;DHT22;12364;47.810;8.810;2022-08-01T15:17:55;31.30;46.00
24232;DHT22;12364;47.810;8.810;2022-08-01T15:20:22;31.20;46.00
24232;DHT22;12364;47.810;8.810;2022-08-01T15:22:50;31.20;45.70
24232;DHT22;12364;47.810;8.810;2022-08-01T15:25:17;31.20;46.50
24232;DHT22;12364;47.810;8.810;2022-08-01T15:27:44;31.20;46.00
24232;DHT22;12364;47.810;8.810;2022-08-01T15:30:11;31.20;46.10
24232;DHT22;12364;47.810;8.810;2022-08-01T15:32:38;31.10;46.70
24232;DHT22;12364;47.810;8.810;2022-08-01T15:35:05;31.10;46.80
24232;DHT22;12364;47.810;8.810;2022-08-01T15:37:32;31.10;46.40
24232;DHT22;12364;47.810;8.810;2022-08-01T15:40:02;31.00;46.40
24232;DHT22;12364;47.810;8.810;2022-08-01T15:42:29;31.00;46.50
24232;DHT22;12364;47.810;8.810;2022-08-01T15:44:56;31.00;46.40
24232;DHT22;12364;47.810;8.810;2022-08-01T15:47:23;31.00;46.40
24232;DHT22;12364;47.810;8.810;2022-08-01T15:49:51;30.90;46.30
24232;DHT22;12364;47.810;8.810;2022-08-01T15:52:18;31.00;47.00
24232;DHT22;12364;47.810;8.810;2022-08-01T15:54:48;31.00;46.50
24232;DHT22;12364;47.810;8.810;2022-08-01T15:57:15;31.00;47.80
24232;DHT22;12364;47.810;8.810;2022-08-01T15:59:42;31.00;48.90
24232;DHT22;12364;47.810;8.810;2022-08-01T16:02:09;31.00;47.80
24232;DHT22;12364;47.810;8.810;2022-08-01T16:04:37;31.00;47.40
24232;DHT22;12364;47.810;8.810;2022-08-01T16:07:05;31.00;47.30
24232;DHT22;12364;47.810;8.810;2022-08-01T16:09:32;31.00;48.30
24232;DHT22;12364;47.810;8.810;2022-08-01T16:11:59;31.00;47.70
24232;DHT22;12364;47.810;8.810;2022-08-01T16:14:26;31.00;48.40
24232;DHT22;12364;47.810;8.810;2022-08-01T16:16:53;30.90;48.40
24232;DHT22;12364;47.810;8.810;2022-08-01T16:19:20;31.00;48.50
24232;DHT22;12364;47.810;8.810;2022-08-01T16:21:47;30.90;50.60
24232;DHT22;12364;47.810;8.810;2022-08-01T16:24:14;30.90;51.70
24232;DHT22;12364;47.810;8.810;2022-08-01T16:26:41;30.80;52.70
24232;DHT22;12364;47.810;8.810;2022-08-01T16:29:09;30.70;54.70
24232;DHT22;12364;47.810;8.810;2022-08-01T16:31:36;30.50;55.80
24232;DHT22;12364;47.810;8.810;2022-08-01T16:34:21;30.40;56.70
24232;DHT22;12364;47.810;8.810;2022-08-01T16:36:49;30.30;56.90
24232;DHT22;12364;47.810;8.810;2022-08-01T16:39:18;30.20;57.30
24232;DHT22;12364;47.810;8.810;2022-08-01T16:41:49;30.20;57.70
24232;DHT22;12364;47.810;8.810;2022-08-01T16:44:21;30.20;58.80
24232;DHT22;12364;47.810;8.810;2022-08-01T16:47:02;30.20;58.40
24232;DHT22;12364;47.810;8.810;2022-08-01T16:49:31;30.20;59.50
24232;DHT22;12364;47.810;8.810;2022-08-01T16:51:58;30.20;59.40
24232;DHT22;12364;47.810;8.810;2022-08-01T16:54:25;30.20;60.10
24232;DHT22;12364;47.810;8.810;2022-08-01T16:56:52;30.10;60.20
24232;DHT22;12364;47.810;8.810;2022-08-01T16:59:20;30.10;60.20
24232;DHT22;12364;47.810;8.810;2022-08-01T17:01:47;30.10;60.20
24232;DHT22;12364;47.810;8.810;2022-08-01T17:04:28;30.10;60.50
24232;DHT22;12364;47.810;8.810;2022-08-01T17:06:56;30.00;60.70
24232;DHT22;12364;47.810;8.810;2022-08-01T17:09:23;30.00;60.80
24232;DHT22;12364;47.810;8.810;2022-08-01T17:11:50;30.00;60.60
24232;DHT22;12364;47.810;8.810;2022-08-01T17:14:17;30.10;61.40
24232;DHT22;12364;47.810;8.810;2022-08-01T17:16:44;30.10;60.80
24232;DHT22;12364;47.810;8.810;2022-08-01T17:19:12;30.10;60.70
24232;DHT22;12364;47.810;8.810;2022-08-01T17:21:41;30.20;61.20
24232;DHT22;12364;47.810;8.810;2022-08-01T17:24:08;30.20;62.00
24232;DHT22;12364;47.810;8.810;2022-08-01T17:26:35;30.20;62.80
24232;DHT22;12364;47.810;8.810;2022-08-01T17:29:02;30.20;63.30
24232;DHT22;12364;47.810;8.810;2022-08-01T17:31:30;30.20;63.00
24232;DHT22;12364;47.810;8.810;2022-08-01T17:33:57;30.20;63.20
24232;DHT22;12364;47.810;8.810;2022-08-01T17:39:01;30.10;63.80
24232;DHT22;12364;47.810;8.810;2022-08-01T17:41:29;30.10;63.90
24232;DHT22;12364;47.810;8.810;2022-08-01T17:43:56;30.10;64.20
24232;DHT22;12364;47.810;8.810;2022-08-01T17:46:23;30.00;63.90
24232;DHT22;12364;47.810;8.810;2022-08-01T17:48:50;30.00;64.00
24232;DHT22;12364;47.810;8.810;2022-08-01T17:51:17;30.10;64.30
24232;DHT22;12364;47.810;8.810;2022-08-01T17:53:48;30.00;64.70
24232;DHT22;12364;47.810;8.810;2022-08-01T17:56:23;30.00;65.00
24232;DHT22;12364;47.810;8.810;2022-08-01T17:58:51;30.00;65.50
24232;DHT22;12364;47.810;8.810;2022-08-01T18:01:18;29.90;65.80
24232;DHT22;12364;47.810;8.810;2022-08-01T18:03:46;29.80;65.60
24232;DHT22;12364;47.810;8.810;2022-08-01T18:06:13;29.80;65.20
24232;DHT22;12364;47.810;8.810;2022-08-01T18:08:43;29.80;65.70
24232;DHT22;12364;47.810;8.810;2022-08-01T18:11:12;29.70;65.70
24232;DHT22;12364;47.810;8.810;2022-08-01T18:13:40;29.70;65.90
24232;DHT22;12364;47.810;8.810;2022-08-01T18:16:07;29.70;66.00
24232;DHT22;12364;47.810;8.810;2022-08-01T18:18:35;29.60;65.90
24232;DHT22;12364;47.810;8.810;2022-08-01T18:21:02;29.60;65.70
24232;DHT22;12364;47.810;8.810;2022-08-01T18:23:29;29.60;64.40
24232;DHT22;12364;47.810;8.810;2022-08-01T18:25:58;29.50;65.80
24232;DHT22;12364;47.810;8.810;2022-08-01T18:28:27;29.40;66.00
24232;DHT22;12364;47.810;8.810;2022-08-01T18:30:59;29.30;66.00
24232;DHT22;12364;47.810;8.810;2022-08-01T18:33:26;29.20;63.80
24232;DHT22;12364;47.810;8.810;2022-08-01T18:35:53;29.00;62.60
24232;DHT22;12364;47.810;8.810;2022-08-01T18:38:30;28.70;61.40
24232;DHT22;12364;47.810;8.810;2022-08-01T18:40:59;28.60;61.70
24232;DHT22;12364;47.810;8.810;2022-08-01T18:43:27;28.50;61.50
24232;DHT22;12364;47.810;8.810;2022-08-01T18:45:54;28.50;61.80
24232;DHT22;12364;47.810;8.810;2022-08-01T18:48:24;28.40;61.70
24232;DHT22;12364;47.810;8.810;2022-08-01T18:50:51;28.30;61.80
24232;DHT22;12364;47.810;8.810;2022-08-01T18:53:20;28.30;62.10
24232;DHT22;12364;47.810;8.810;2022-08-01T18:55:49;28.20;62.20
24232;DHT22;12364;47.810;8.810;2022-08-01T18:58:16;28.00;62.40
24232;DHT22;12364;47.810;8.810;2022-08-01T19:00:43;27.90;62.80
24232;DHT22;12364;47.810;8.810;2022-08-01T19:03:10;27.90;63.10
24232;DHT22;12364;47.810;8.810;2022-08-01T19:05:39;28.00;63.50
24232;DHT22;12364;47.810;8.810;2022-08-01T19:08:06;27.90;63.70
24232;DHT22;12364;47.810;8.810;2022-08-01T19:10:40;27.60;65.00
24232;DHT22;12364;47.810;8.810;2022-08-01T19:13:07;27.40;66.10
24232;DHT22;12364;47.810;8.810;2022-08-01T19:15:34;27.10;66.40
24232;DHT22;12364;47.810;8.810;2022-08-01T19:18:02;27.10;66.60
24232;DHT22;12364;47.810;8.810;2022-08-01T19:20:29;27.00;67.00
24232;DHT22;12364;47.810;8.810;2022-08-01T19:22:56;27.00;67.00
24232;DHT22;12364;47.810;8.810;2022-08-01T19:25:23;27.10;67.00
24232;DHT22;12364;47.810;8.810;2022-08-01T19:27:50;27.10;67.40
24232;DHT22;12364;47.810;8.810;2022-08-01T19:30:18;27.10;67.60
24232;DHT22;12364;47.810;8.810;2022-08-01T19:32:45;27.20;67.80
24232;DHT22;12364;47.810;8.810;2022-08-01T19:35:13;27.00;68.00
24232;DHT22;12364;47.810;8.810;2022-08-01T19:37:41;26.90;68.40
24232;DHT22;12364;47.810;8.810;2022-08-01T19:40:13;26.80;68.80
24232;DHT22;12364;47.810;8.810;2022-08-01T19:42:54;26.60;69.10
24232;DHT22;12364;47.810;8.810;2022-08-01T19:45:22;26.40;69.70
24232;DHT22;12364;47.810;8.810;2022-08-01T19:47:50;26.20;71.40
24232;DHT22;12364;47.810;8.810;2022-08-01T19:50:26;26.10;72.50
24232;DHT22;12364;47.810;8.810;2022-08-01T19:52:54;26.00;72.10
24232;DHT22;12364;47.810;8.810;2022-08-01T19:55:25;25.80;72.60
24232;DHT22;12364;47.810;8.810;2022-08-01T19:57:52;25.70;73.80
24232;DHT22;12364;47.810;8.810;2022-08-01T20:00:40;25.70;74.80
24232;DHT22;12364;47.810;8.810;2022-08-01T20:03:08;25.70;72.90
24232;DHT22;12364;47.810;8.810;2022-08-01T20:05:36;25.70;73.40
24232;DHT22;12364;47.810;8.810;2022-08-01T20:08:05;25.80;74.40
24232;DHT22;12364;47.810;8.810;2022-08-01T20:10:33;25.80;74.50
24232;DHT22;12364;47.810;8.810;2022-08-01T20:13:01;25.80;73.40
24232;DHT22;12364;47.810;8.810;2022-08-01T20:15:28;25.80;73.60